sensor_id;sensor_type;location;lat;lon;timestamp;pressure;altitude;pressure_sealevel;temperature;humidity
36138;BME280;67787;50.074;21.904;2023-06-10T10:31:08;98979.02;;;22.91;61.81
36138;BME280;67787;50.074;21.904;2023-06-10T10:36:37;98975.98;;;22.89;61.12
36138;BME280;67787;50.074;21.904;2023-06-10T10:39:04;98973.25;;;22.88;61.58
36138;BME280;67787;50.074;21.904;2023-06-10T10:41:32;98970.64;;;22.89;61.79
36138;BME280;67787;50.074;21.904;2023-06-10T10:44:20;98981.89;;;22.96;61.86
36138;BME280;67787;50.074;21.904;2023-06-10T10:46:49;98975.92;;;22.86;61.55
36138;BME280;67787;50.074;21.904;2023-06-10T10:49:20;98977.38;;;22.85;61.83
36138;BME280;67787;50.074;21.904;2023-06-10T10:51:56;98977.95;;;22.87;61.72
36138;BME280;67787;50.074;21.904;2023-06-10T10:54:34;98973.27;;;22.75;61.69
36138;BME280;67787;50.074;21.904;2023-06-10T10:59:45;98973.70;;;22.81;61.70
36138;BME280;67787;50.074;21.904;2023-06-10T11:02:31;98974.11;;;22.86;61.82
36138;BME280;67787;50.074;21.904;2023-06-10T11:05:16;98970.20;;;22.94;61.82
36138;BME280;67787;50.074;21.904;2023-06-10T11:07:54;98971.64;;;23.02;61.96
36138;BME280;67787;50.074;21.904;2023-06-10T11:33:59;98962.18;;;23.50;61.01
36138;BME280;67787;50.074;21.904;2023-06-10T11:36:27;98965.19;;;23.37;61.14
36138;BME280;67787;50.074;21.904;2023-06-10T11:39:02;98964.33;;;23.32;61.04
36138;BME280;67787;50.074;21.904;2023-06-10T11:41:31;98962.89;;;23.31;61.11
36138;BME280;67787;50.074;21.904;2023-06-10T11:44:21;98966.02;;;23.27;61.10
36138;BME280;67787;50.074;21.904;2023-06-10T11:50:32;98958.70;;;23.40;61.23
36138;BME280;67787;50.074;21.904;2023-06-10T11:52:59;98963.30;;;23.43;61.19
36138;BME280;67787;50.074;21.904;2023-06-10T11:55:42;98964.63;;;23.40;61.04
36138;BME280;67787;50.074;21.904;2023-06-10T11:58:21;98967.89;;;23.31;60.78
36138;BME280;67787;50.074;21.904;2023-06-10T12:01:07;98962.08;;;23.07;60.75
36138;BME280;67787;50.074;21.904;2023-06-10T12:03:37;98964.32;;;22.90;60.70
36138;BME280;67787;50.074;21.904;2023-06-10T12:06:06;98962.49;;;22.79;60.56
36138;BME280;67787;50.074;21.904;2023-06-10T12:08:33;98963.48;;;22.74;60.88
36138;BME280;67787;50.074;21.904;2023-06-10T12:11:11;98966.50;;;22.74;60.70
36138;BME280;67787;50.074;21.904;2023-06-10T12:17:02;98966.65;;;22.48;60.67
36138;BME280;67787;50.074;21.904;2023-06-10T12:19:29;98963.40;;;22.51;60.62
36138;BME280;67787;50.074;21.904;2023-06-10T12:21:56;98962.77;;;22.61;60.60
36138;BME280;67787;50.074;21.904;2023-06-10T12:24:23;98959.48;;;22.70;60.61
36138;BME280;67787;50.074;21.904;2023-06-10T12:26:53;98958.20;;;22.77;60.73
36138;BME280;67787;50.074;21.904;2023-06-10T12:29:23;98957.48;;;22.90;60.83
36138;BME280;67787;50.074;21.904;2023-06-10T12:34:28;98957.36;;;23.11;60.58
36138;BME280;67787;50.074;21.904;2023-06-10T12:37:19;98954.16;;;23.18;60.69
36138;BME280;67787;50.074;21.904;2023-06-10T12:39:51;98954.89;;;23.24;60.65
36138;BME280;67787;50.074;21.904;2023-06-10T12:42:22;98950.72;;;23.28;60.46
36138;BME280;67787;50.074;21.904;2023-06-10T12:44:53;98952.73;;;23.21;60.37
36138;BME280;67787;50.074;21.904;2023-06-10T12:50:26;98946.69;;;23.07;60.32
36138;BME280;67787;50.074;21.904;2023-06-10T12:52:53;98942.20;;;22.98;60.45
36138;BME280;67787;50.074;21.904;2023-06-10T12:55:20;98942.83;;;23.00;60.36
36138;BME280;67787;50.074;21.904;2023-06-10T12:57:48;98939.20;;;22.95;60.27
36138;BME280;67787;50.074;21.904;2023-06-10T13:00:17;98943.95;;;22.90;60.08
36138;BME280;67787;50.074;21.904;2023-06-10T13:02:43;98942.52;;;22.84;60.03
36138;BME280;67787;50.074;21.904;2023-06-10T13:05:11;98938.03;;;22.80;60.15
36138;BME280;67787;50.074;21.904;2023-06-10T13:07:43;98938.35;;;22.78;60.10
36138;BME280;67787;50.074;21.904;2023-06-10T13:10:12;98938.48;;;22.67;60.18
36138;BME280;67787;50.074;21.904;2023-06-10T13:12:40;98943.45;;;22.67;60.29
36138;BME280;67787;50.074;21.904;2023-06-10T13:15:45;98948.37;;;22.57;60.09
36138;BME280;67787;50.074;21.904;2023-06-10T13:18:12;98955.59;;;22.41;60.01
36138;BME280;67787;50.074;21.904;2023-06-10T13:20:39;98954.38;;;22.20;60.10
36138;BME280;67787;50.074;21.904;2023-06-10T13:23:06;98949.41;;;22.09;60.02
36138;BME280;67787;50.074;21.904;2023-06-10T13:25:33;98947.18;;;22.07;60.43
36138;BME280;67787;50.074;21.904;2023-06-10T13:28:00;98950.74;;;22.09;60.36
36138;BME280;67787;50.074;21.904;2023-06-10T13:30:27;98952.00;;;22.16;60.49
36138;BME280;67787;50.074;21.904;2023-06-10T13:32:54;98951.15;;;22.23;60.41
36138;BME280;67787;50.074;21.904;2023-06-10T13:35:21;98954.27;;;22.25;60.40
36138;BME280;67787;50.074;21.904;2023-06-10T13:37:48;98961.02;;;22.28;60.46
36138;BME280;67787;50.074;21.904;2023-06-10T13:40:15;98953.10;;;22.22;60.39
36138;BME280;67787;50.074;21.904;2023-06-10T13:42:42;98955.98;;;22.23;60.49
36138;BME280;67787;50.074;21.904;2023-06-10T13:45:09;98957.97;;;22.28;60.69
36138;BME280;67787;50.074;21.904;2023-06-10T13:47:36;98957.70;;;22.34;60.67
36138;BME280;67787;50.074;21.904;2023-06-10T13:50:05;98957.05;;;22.38;60.45
36138;BME280;67787;50.074;21.904;2023-06-10T13:52:35;98957.54;;;22.43;60.71
36138;BME280;67787;50.074;21.904;2023-06-10T13:55:02;98953.42;;;22.49;60.70
36138;BME280;67787;50.074;21.904;2023-06-10T13:57:29;98957.02;;;22.50;60.61
36138;BME280;67787;50.074;21.904;2023-06-10T13:59:55;98956.90;;;22.42;60.66
36138;BME280;67787;50.074;21.904;2023-06-10T14:02:22;98956.39;;;22.31;60.59
36138;BME280;67787;50.074;21.904;2023-06-10T14:04:51;98954.77;;;22.21;60.60
36138;BME280;67787;50.074;21.904;2023-06-10T14:07:19;98957.77;;;22.16;60.52
36138;BME280;67787;50.074;21.904;2023-06-10T14:09:49;98951.74;;;22.12;60.60
36138;BME280;67787;50.074;21.904;2023-06-10T14:13:00;98949.70;;;22.08;60.54
36138;BME280;67787;50.074;21.904;2023-06-10T14:15:52;98948.56;;;22.04;60.32
36138;BME280;67787;50.074;21.904;2023-06-10T14:19:10;98951.17;;;21.99;60.39
36138;BME280;67787;50.074;21.904;2023-06-10T14:22:06;98953.34;;;21.99;60.44
36138;BME280;67787;50.074;21.904;2023-06-10T14:24:35;98955.23;;;22.00;60.67
36138;BME280;67787;50.074;21.904;2023-06-10T14:27:03;98955.83;;;22.02;60.63
36138;BME280;67787;50.074;21.904;2023-06-10T14:29:30;98956.94;;;22.02;60.51
36138;BME280;67787;50.074;21.904;2023-06-10T14:31:58;98957.83;;;21.98;60.28
36138;BME280;67787;50.074;21.904;2023-06-10T14:34:25;98955.08;;;21.95;60.48
36138;BME280;67787;50.074;21.904;2023-06-10T14:36:56;98957.83;;;22.01;60.56
36138;BME280;67787;50.074;21.904;2023-06-10T14:39:23;98959.66;;;22.06;60.45
36138;BME280;67787;50.074;21.904;2023-06-10T14:41:50;98959.27;;;22.08;60.36
36138;BME280;67787;50.074;21.904;2023-06-10T14:44:19;98960.26;;;22.10;60.57
36138;BME280;67787;50.074;21.904;2023-06-10T14:46:46;98961.01;;;22.13;60.52
36138;BME280;67787;50.074;21.904;2023-06-10T14:49:12;98962.30;;;22.13;60.42
36138;BME280;67787;50.074;21.904;2023-06-10T14:51:39;98957.96;;;22.10;60.40
36138;BME280;67787;50.074;21.904;2023-06-10T14:54:06;98955.34;;;22.10;60.61
36138;BME280;67787;50.074;21.904;2023-06-10T14:56:34;98955.38;;;22.10;60.70
36138;BME280;67787;50.074;21.904;2023-06-10T14:59:01;98955.08;;;22.16;60.55
36138;BME280;67787;50.074;21.904;2023-06-10T15:01:27;98960.61;;;22.15;60.49
36138;BME280;67787;50.074;21.904;2023-06-10T15:03:54;98962.46;;;22.16;60.55
36138;BME280;67787;50.074;21.904;2023-06-10T15:06:21;98967.95;;;22.12;60.37
36138;BME280;67787;50.074;21.904;2023-06-10T15:08:49;98968.59;;;22.00;60.42
36138;BME280;67787;50.074;21.904;2023-06-10T15:11:17;98977.13;;;21.93;60.41
36138;BME280;67787;50.074;21.904;2023-06-10T15:13:43;98982.90;;;21.83;60.41
36138;BME280;67787;50.074;21.904;2023-06-10T15:16:10;98979.91;;;21.66;60.37
36138;BME280;67787;50.074;21.904;2023-06-10T15:18:37;98976.73;;;21.54;60.42
36138;BME280;67787;50.074;21.904;2023-06-10T15:21:04;98977.33;;;21.51;60.50
36138;BME280;67787;50.074;21.904;2023-06-10T15:23:32;98973.53;;;21.45;60.59
36138;BME280;67787;50.074;21.904;2023-06-10T15:25:58;98980.09;;;21.38;60.35
36138;BME280;67787;50.074;21.904;2023-06-10T15:28:25;98980.02;;;21.25;60.45
36138;BME280;67787;50.074;21.904;2023-06-10T15:30:55;98979.39;;;21.12;60.48
36138;BME280;67787;50.074;21.904;2023-06-10T15:33:22;98987.90;;;21.04;60.71
36138;BME280;67787;50.074;21.904;2023-06-10T15:35:48;98989.31;;;20.94;60.41
36138;BME280;67787;50.074;21.904;2023-06-10T15:38:16;98990.29;;;20.84;60.70
36138;BME280;67787;50.074;21.904;2023-06-10T15:40:43;98989.16;;;20.73;60.54
36138;BME280;67787;50.074;21.904;2023-06-10T15:43:10;98990.83;;;20.65;60.70
36138;BME280;67787;50.074;21.904;2023-06-10T15:45:37;98989.48;;;20.57;60.65
36138;BME280;67787;50.074;21.904;2023-06-10T15:48:04;98992.39;;;20.51;60.79
36138;BME280;67787;50.074;21.904;2023-06-10T15:50:31;98998.39;;;20.50;60.87
36138;BME280;67787;50.074;21.904;2023-06-10T15:52:59;98999.88;;;20.48;60.70
36138;BME280;67787;50.074;21.904;2023-06-10T15:55:25;99000.91;;;20.46;60.78
36138;BME280;67787;50.074;21.904;2023-06-10T15:57:58;99002.98;;;20.42;60.87
36138;BME280;67787;50.074;21.904;2023-06-10T16:00:27;98998.86;;;20.37;60.81
36138;BME280;67787;50.074;21.904;2023-06-10T16:02:55;98996.61;;;20.34;60.84
36138;BME280;67787;50.074;21.904;2023-06-10T16:05:22;99002.33;;;20.33;60.99
36138;BME280;67787;50.074;21.904;2023-06-10T16:07:50;99004.67;;;20.27;60.86
36138;BME280;67787;50.074;21.904;2023-06-10T16:10:16;99010.67;;;20.22;60.93
36138;BME280;67787;50.074;21.904;2023-06-10T16:12:43;99009.00;;;20.16;60.89
36138;BME280;67787;50.074;21.904;2023-06-10T16:15:10;99006.72;;;20.09;61.11
36138;BME280;67787;50.074;21.904;2023-06-10T16:17:38;99010.44;;;20.04;61.16
36138;BME280;67787;50.074;21.904;2023-06-10T16:20:07;99011.81;;;20.01;61.22
36138;BME280;67787;50.074;21.904;2023-06-10T16:22:35;99017.38;;;20.01;61.35
36138;BME280;67787;50.074;21.904;2023-06-10T16:25:01;99025.95;;;19.96;61.41
36138;BME280;67787;50.074;21.904;2023-06-10T16:27:28;99029.96;;;19.89;61.32
36138;BME280;67787;50.074;21.904;2023-06-10T16:29:55;99036.35;;;19.87;61.42
36138;BME280;67787;50.074;21.904;2023-06-10T16:32:23;99042.85;;;19.77;61.58
36138;BME280;67787;50.074;21.904;2023-06-10T16:34:49;99050.73;;;19.64;61.53
36138;BME280;67787;50.074;21.904;2023-06-10T16:37:16;99050.61;;;19.56;61.64
36138;BME280;67787;50.074;21.904;2023-06-10T16:39:43;99059.59;;;19.49;61.73
36138;BME280;67787;50.074;21.904;2023-06-10T16:42:10;99052.38;;;19.36;62.13
36138;BME280;67787;50.074;21.904;2023-06-10T16:44:38;99056.84;;;19.26;62.14
36138;BME280;67787;50.074;21.904;2023-06-10T16:47:08;99059.95;;;19.24;61.98
36138;BME280;67787;50.074;21.904;2023-06-10T16:49:35;99061.48;;;19.23;61.92
36138;BME280;67787;50.074;21.904;2023-06-10T16:52:05;99064.84;;;19.22;62.07
36138;BME280;67787;50.074;21.904;2023-06-10T16:54:32;99067.91;;;19.17;62.16
36138;BME280;67787;50.074;21.904;2023-06-10T16:57:26;99062.86;;;19.12;62.26
36138;BME280;67787;50.074;21.904;2023-06-10T17:06:21;99065.85;;;19.10;62.30
